createdAt,value
2022-07-28T00:00:20.031Z,98122.66
2022-07-28T00:03:08.981Z,98124.98
2022-07-28T00:05:41.172Z,98126.17
2022-07-28T00:08:13.147Z,98127.31
2022-07-28T00:10:44.905Z,98125.87
2022-07-28T00:13:16.430Z,98117.16
2022-07-28T00:15:48.070Z,98121.45
2022-07-28T00:18:19.770Z,98124.00
2022-07-28T00:20:51.344Z,98129.60
2022-07-28T00:23:22.928Z,98134.02
2022-07-28T00:26:11.975Z,98133.10
2022-07-28T00:28:43.586Z,98134.66
2022-07-28T00:31:15.518Z,98133.80
2022-07-28T00:33:47.518Z,98131.48
2022-07-28T00:36:19.097Z,98132.33
2022-07-28T00:38:56.222Z,98138.15
2022-07-28T00:41:27.723Z,98141.70
2022-07-28T00:43:59.312Z,98142.35
2022-07-28T00:46:30.914Z,98139.86
2022-07-28T00:49:02.765Z,98134.52
2022-07-28T00:51:34.639Z,98130.72
2022-07-28T00:54:06.822Z,98131.03
2022-07-28T00:56:38.408Z,98128.52
2022-07-28T00:59:10.149Z,98127.50
2022-07-28T01:01:41.855Z,98125.16
2022-07-28T01:04:13.854Z,98122.96
2022-07-28T01:06:56.015Z,98120.39
2022-07-28T01:09:45.231Z,98115.31
2022-07-28T01:12:27.576Z,98112.27
2022-07-28T01:15:07.743Z,98113.04
2022-07-28T01:17:46.022Z,98118.84
2022-07-28T01:20:22.960Z,98119.91
2022-07-28T01:23:14.521Z,98125.31
2022-07-28T01:25:49.343Z,98120.61
2022-07-28T01:28:30.538Z,98125.62
2022-07-28T01:31:07.108Z,98124.23
2022-07-28T01:33:43.478Z,98128.00
2022-07-28T01:36:18.614Z,98128.91
2022-07-28T01:38:51.241Z,98128.14
2022-07-28T01:41:28.232Z,98125.95
2022-07-28T01:44:04.258Z,98125.34
2022-07-28T01:46:37.031Z,98125.51
2022-07-28T01:49:10.771Z,98121.52
2022-07-28T01:51:45.924Z,98116.70
2022-07-28T01:54:19.172Z,98120.20
2022-07-28T01:56:52.809Z,98121.19
2022-07-28T01:59:27.230Z,98123.70
2022-07-28T02:02:00.817Z,98119.23
2022-07-28T02:04:34.519Z,98120.48
2022-07-28T02:07:07.559Z,98121.67
2022-07-28T02:09:39.611Z,98123.85
2022-07-28T02:12:18.006Z,98126.96
2022-07-28T02:14:51.865Z,98129.61
2022-07-28T02:17:26.411Z,98132.13
2022-07-28T02:19:58.996Z,98131.06
2022-07-28T02:22:31.545Z,98133.86
2022-07-28T02:25:03.225Z,98135.31
2022-07-28T02:27:39.852Z,98136.60
2022-07-28T02:30:16.274Z,98133.28
2022-07-28T02:32:52.421Z,98136.49
2022-07-28T02:35:32.009Z,98137.33
2022-07-28T02:38:07.487Z,98140.67
2022-07-28T02:40:41.623Z,98142.12
2022-07-28T02:43:19.732Z,98140.85
2022-07-28T02:45:57.009Z,98143.77
2022-07-28T02:48:32.111Z,98144.80
2022-07-28T02:51:04.733Z,98143.11
2022-07-28T02:53:38.421Z,98145.52
2022-07-28T02:56:11.485Z,98148.15
2022-07-28T02:58:43.621Z,98148.33
2022-07-28T03:01:18.527Z,98150.56
2022-07-28T03:03:51.469Z,98156.93
2022-07-28T03:06:28.817Z,98162.58
2022-07-28T03:09:00.881Z,98160.25
2022-07-28T03:11:33.838Z,98161.79
2022-07-28T03:14:06.294Z,98159.91
2022-07-28T03:16:38.051Z,98164.98
2022-07-28T03:19:10.415Z,98164.21
2022-07-28T03:21:42.141Z,98171.39
2022-07-28T03:24:14.198Z,98171.75
2022-07-28T03:26:52.576Z,98178.17
2022-07-28T03:29:25.754Z,98177.02
2022-07-28T03:31:59.560Z,98178.63
2022-07-28T03:34:31.215Z,98178.42
2022-07-28T03:37:11.392Z,98181.53
2022-07-28T03:39:48.189Z,98182.80
2022-07-28T03:42:20.830Z,98179.33
2022-07-28T03:44:54.018Z,98183.30
2022-07-28T03:47:26.359Z,98188.02
2022-07-28T03:49:57.927Z,98192.89
2022-07-28T03:52:29.533Z,98192.87
2022-07-28T03:55:01.035Z,98196.11
2022-07-28T03:57:32.611Z,98198.23
2022-07-28T04:00:09.366Z,98197.89
2022-07-28T04:02:44.539Z,98195.47
2022-07-28T04:05:17.861Z,98197.09
2022-07-28T04:07:49.390Z,98200.68
2022-07-28T04:10:21.039Z,98202.39
2022-07-28T04:12:55.055Z,98205.36
2022-07-28T04:15:28.406Z,98210.58
2022-07-28T04:18:00.638Z,98212.98
2022-07-28T04:20:32.292Z,98215.11
2022-07-28T04:36:24.786Z,98217.03
2022-07-28T04:38:53.023Z,98220.05
2022-07-28T04:41:21.269Z,98218.18
2022-07-28T04:43:49.554Z,98214.16
2022-07-28T04:46:17.803Z,98212.38
2022-07-28T04:48:46.313Z,98214.80
2022-07-28T04:51:14.584Z,98217.11
2022-07-28T04:53:42.897Z,98220.45
2022-07-28T04:56:11.034Z,98223.96
2022-07-28T04:58:39.244Z,98227.36
2022-07-28T05:01:07.854Z,98229.35
2022-07-28T05:03:36.571Z,98230.52
2022-07-28T05:06:05.383Z,98230.23
2022-07-28T05:08:33.573Z,98234.08
2022-07-28T05:11:01.775Z,98235.91
2022-07-28T05:13:33.980Z,98238.12
2022-07-28T05:16:03.025Z,98234.49
2022-07-28T05:18:31.211Z,98236.19
2022-07-28T05:20:59.381Z,98237.80
2022-07-28T05:23:27.683Z,98241.23
2022-07-28T05:25:55.950Z,98241.69
2022-07-28T05:28:24.330Z,98241.95
2022-07-28T05:30:52.494Z,98237.38
2022-07-28T05:33:20.579Z,98240.52
2022-07-28T05:35:53.300Z,98239.95
2022-07-28T05:38:21.712Z,98239.08
2022-07-28T05:40:50.147Z,98244.16
2022-07-28T05:43:19.036Z,98243.23
2022-07-28T05:45:47.809Z,98242.27
2022-07-28T05:48:18.495Z,98242.61
2022-07-28T05:50:47.091Z,98246.77
2022-07-28T05:53:15.301Z,98244.58
2022-07-28T05:56:00.490Z,98244.48
2022-07-28T05:58:30.644Z,98246.67
2022-07-28T06:01:02.460Z,98247.14
2022-07-28T06:03:32.439Z,98254.14
2022-07-28T06:06:14.775Z,98255.91
2022-07-28T06:08:46.080Z,98255.42
2022-07-28T06:11:17.972Z,98257.73
2022-07-28T06:13:52.435Z,98256.74
2022-07-28T06:16:22.095Z,98260.48
2022-07-28T06:18:51.227Z,98259.67
2022-07-28T06:21:21.817Z,98267.41
2022-07-28T06:23:49.974Z,98271.14
2022-07-28T06:26:20.041Z,98268.62
2022-07-28T06:28:48.347Z,98268.23
2022-07-28T06:31:16.685Z,98267.36
2022-07-28T06:33:44.819Z,98274.20
2022-07-28T06:36:12.859Z,98273.14
2022-07-28T06:38:41.014Z,98275.23
2022-07-28T06:41:09.190Z,98277.95
2022-07-28T06:43:39.201Z,98276.20
2022-07-28T06:46:08.117Z,98278.92
2022-07-28T06:48:38.686Z,98275.27
2022-07-28T06:51:07.207Z,98277.68
2022-07-28T06:53:35.405Z,98282.69
2022-07-28T06:56:05.534Z,98284.52
2022-07-28T06:58:34.321Z,98285.25
2022-07-28T07:01:06.662Z,98286.98
2022-07-28T07:03:34.999Z,98282.13
2022-07-28T07:06:03.419Z,98280.54
2022-07-28T07:08:31.565Z,98279.42
2022-07-28T07:10:59.679Z,98278.51
2022-07-28T07:13:28.444Z,98275.41
2022-07-28T07:15:56.833Z,98280.15
2022-07-28T07:18:25.196Z,98271.44
2022-07-28T07:20:53.955Z,98273.35
2022-07-28T07:23:22.144Z,98273.73
2022-07-28T07:25:50.535Z,98273.41
2022-07-28T07:28:18.733Z,98272.92
2022-07-28T07:30:47.818Z,98270.53
2022-07-28T07:33:16.084Z,98271.02
2022-07-28T07:35:44.663Z,98277.00
2022-07-28T07:38:12.957Z,98279.46
2022-07-28T07:40:41.379Z,98277.77
2022-07-28T07:43:09.447Z,98275.39
2022-07-28T07:45:39.847Z,98274.77
2022-07-28T07:48:08.193Z,98276.07
2022-07-28T07:50:37.637Z,98273.47
2022-07-28T07:53:05.744Z,98269.70
2022-07-28T07:55:37.728Z,98271.31
2022-07-28T07:58:06.648Z,98270.13
2022-07-28T08:00:37.820Z,98265.20
2022-07-28T08:03:11.351Z,98268.85
2022-07-28T08:05:40.359Z,98268.77
2022-07-28T08:08:09.228Z,98268.36
2022-07-28T08:10:38.847Z,98271.39
2022-07-28T08:13:07.576Z,98271.86
2022-07-28T08:15:35.800Z,98275.64
2022-07-28T08:18:04.390Z,98274.48
2022-07-28T08:20:32.786Z,98276.98
2022-07-28T08:23:01.115Z,98273.92
2022-07-28T08:25:29.676Z,98277.36
2022-07-28T08:27:57.857Z,98279.96
2022-07-28T08:30:30.247Z,98281.72
2022-07-28T08:33:02.127Z,98275.67
2022-07-28T08:35:33.541Z,98277.34
2022-07-28T08:38:04.455Z,98273.70
2022-07-28T08:40:38.676Z,98273.12
2022-07-28T08:43:23.071Z,98270.81
2022-07-28T08:45:57.738Z,98268.89
2022-07-28T08:48:29.617Z,98267.73
2022-07-28T08:51:02.648Z,98265.89
2022-07-28T08:53:32.616Z,98267.94
2022-07-28T08:56:04.932Z,98265.10
2022-07-28T08:58:35.334Z,98265.52
2022-07-28T09:01:04.895Z,98259.65
2022-07-28T09:03:33.256Z,98261.20
2022-07-28T09:06:01.880Z,98258.52
2022-07-28T09:08:30.454Z,98258.55
2022-07-28T09:10:58.648Z,98257.34
2022-07-28T09:13:27.003Z,98256.23
2022-07-28T09:16:04.734Z,98254.71
2022-07-28T09:18:45.114Z,98259.86
2022-07-28T09:21:18.275Z,98260.98
2022-07-28T09:23:49.097Z,98255.75
2022-07-28T09:26:17.774Z,98253.67
2022-07-28T09:28:50.911Z,98250.59
2022-07-28T09:31:20.201Z,98251.33
2022-07-28T09:34:00.463Z,98252.06
2022-07-28T09:36:29.392Z,98251.13
2022-07-28T09:38:58.499Z,98246.77
2022-07-28T09:41:26.890Z,98244.15
2022-07-28T09:43:55.920Z,98244.13
2022-07-28T09:46:25.919Z,98246.77
2022-07-28T09:48:57.405Z,98246.84
2022-07-28T09:51:27.753Z,98246.29
2022-07-28T09:54:08.112Z,98247.46
2022-07-28T09:56:36.301Z,98244.29
2022-07-28T09:59:04.799Z,98246.53
2022-07-28T10:01:51.100Z,98243.73
2022-07-28T10:04:30.576Z,98244.55
2022-07-28T10:07:04.809Z,98245.38
2022-07-28T10:09:33.725Z,98243.15
2022-07-28T10:12:20.120Z,98240.08
2022-07-28T10:14:51.044Z,98243.04
2022-07-28T10:17:22.499Z,98237.27
2022-07-28T10:19:53.566Z,98232.70
2022-07-28T10:22:25.533Z,98230.30
2022-07-28T10:24:54.408Z,98229.59
2022-07-28T10:27:24.667Z,98229.11
2022-07-28T10:29:58.467Z,98228.43
2022-07-28T10:32:28.913Z,98225.27
2022-07-28T10:35:04.206Z,98227.05
2022-07-28T10:37:37.173Z,98225.15
2022-07-28T10:40:10.543Z,98228.10
2022-07-28T10:42:40.145Z,98221.66
2022-07-28T10:45:10.745Z,98223.30
2022-07-28T10:47:39.314Z,98217.77
2022-07-28T10:50:09.449Z,98216.65
2022-07-28T10:52:48.918Z,98220.67
2022-07-28T10:55:32.081Z,98216.55
2022-07-28T10:58:11.497Z,98220.87
2022-07-28T11:00:56.097Z,98216.05
2022-07-28T11:03:41.897Z,98208.09
2022-07-28T11:06:27.478Z,98206.20
2022-07-28T11:08:56.534Z,98206.71
2022-07-28T11:11:43.186Z,98207.44
2022-07-28T11:14:37.341Z,98210.98
2022-07-28T11:17:24.396Z,98212.69
2022-07-28T11:20:27.159Z,98212.81
2022-07-28T11:22:51.104Z,98212.80
2022-07-28T11:25:22.103Z,98212.33
2022-07-28T11:28:05.299Z,98207.06
2022-07-28T11:30:53.732Z,98198.91
2022-07-28T11:33:24.100Z,98201.70
2022-07-28T11:35:59.355Z,98201.48
2022-07-28T11:38:27.981Z,98200.02
2022-07-28T11:40:56.717Z,98204.90
2022-07-28T11:43:36.827Z,98201.33
2022-07-28T11:46:35.341Z,98206.38
2022-07-28T11:49:28.119Z,98202.34
2022-07-28T11:52:22.873Z,98200.27
2022-07-28T11:54:56.763Z,98201.70
2022-07-28T11:57:28.552Z,98201.20
2022-07-28T12:00:01.709Z,98197.55
2022-07-28T12:02:35.069Z,98198.52
2022-07-28T12:05:21.816Z,98195.02
2022-07-28T12:07:53.703Z,98198.22
2022-07-28T12:13:27.325Z,98191.57
2022-07-28T12:15:55.605Z,98193.73
2022-07-28T12:18:24.788Z,98188.66
2022-07-28T12:20:54.029Z,98183.52
2022-07-28T12:23:39.326Z,98184.11
2022-07-28T12:26:31.812Z,98183.31
2022-07-28T12:29:03.519Z,98182.80
2022-07-28T12:31:37.288Z,98177.62
2022-07-28T12:34:06.626Z,98173.68
2022-07-28T12:36:36.259Z,98179.59
2022-07-28T12:39:10.892Z,98177.98
2022-07-28T12:41:41.039Z,98177.35
2022-07-28T12:44:11.323Z,98171.33
2022-07-28T12:46:48.045Z,98168.85
2022-07-28T12:49:22.762Z,98167.48
2022-07-28T12:51:51.101Z,98165.13
2022-07-28T12:54:34.908Z,98165.02
2022-07-28T12:57:03.689Z,98165.23
2022-07-28T12:59:37.666Z,98161.77
2022-07-28T13:02:08.115Z,98163.98
2022-07-28T13:04:44.558Z,98166.32
2022-07-28T13:07:14.937Z,98169.13
2022-07-28T13:09:45.101Z,98170.16
2022-07-28T13:12:17.201Z,98169.98
2022-07-28T13:14:47.786Z,98170.02
2022-07-28T13:17:16.062Z,98166.98
2022-07-28T13:19:44.783Z,98170.77
2022-07-28T13:22:12.910Z,98167.55
2022-07-28T13:24:41.146Z,98162.10
2022-07-28T13:27:13.151Z,98159.84
2022-07-28T13:29:41.340Z,98158.18
2022-07-28T13:32:10.993Z,98158.48
2022-07-28T13:34:39.298Z,98157.94
2022-07-28T13:37:07.545Z,98161.87
2022-07-28T13:40:13.910Z,98157.93
2022-07-28T13:42:52.717Z,98158.41
2022-07-28T13:45:22.257Z,98154.12
2022-07-28T13:47:53.447Z,98159.24
2022-07-28T13:50:22.050Z,98158.89
2022-07-28T13:52:53.046Z,98157.40
2022-07-28T13:55:24.972Z,98157.17
2022-07-28T13:57:56.449Z,98155.55
2022-07-28T14:00:25.116Z,98151.20
2022-07-28T14:02:53.331Z,98151.49
2022-07-28T14:05:22.456Z,98144.98
2022-07-28T14:07:50.953Z,98147.47
2022-07-28T14:10:19.108Z,98143.17
2022-07-28T14:12:47.244Z,98139.59
2022-07-28T14:15:15.525Z,98141.84
2022-07-28T14:17:45.899Z,98140.95
2022-07-28T14:20:15.299Z,98138.54
2022-07-28T14:22:43.834Z,98136.42
2022-07-28T14:25:19.574Z,98135.66
2022-07-28T14:27:51.496Z,98130.38
2022-07-28T14:30:20.138Z,98131.45
2022-07-28T14:32:48.551Z,98130.13
2022-07-28T14:35:17.027Z,98129.80
2022-07-28T14:40:33.685Z,98129.40
2022-07-28T14:43:08.201Z,98129.69
2022-07-28T14:45:51.507Z,98126.09
2022-07-28T14:48:24.850Z,98121.52
2022-07-28T14:50:55.939Z,98112.10
2022-07-28T14:53:24.455Z,98111.04
2022-07-28T14:55:56.434Z,98103.90
2022-07-28T14:58:25.066Z,98107.90
2022-07-28T15:00:53.927Z,98110.04
2022-07-28T15:03:22.857Z,98109.28
2022-07-28T15:05:51.560Z,98116.03
2022-07-28T15:08:20.141Z,98113.45
2022-07-28T15:10:55.258Z,98108.57
2022-07-28T15:13:24.528Z,98105.69
2022-07-28T15:16:00.288Z,98102.36
2022-07-28T15:18:29.154Z,98103.82
2022-07-28T15:20:57.429Z,98102.96
2022-07-28T15:23:28.026Z,98103.20
2022-07-28T15:25:56.292Z,98100.48
2022-07-28T15:28:24.424Z,98103.70
2022-07-28T15:30:53.239Z,98103.61
2022-07-28T15:33:21.549Z,98095.04
2022-07-28T15:36:00.244Z,98095.20
2022-07-28T15:38:31.597Z,98094.93
2022-07-28T15:41:00.215Z,98095.89
2022-07-28T15:43:29.137Z,98097.03
2022-07-28T15:45:57.394Z,98098.80
2022-07-28T15:48:25.771Z,98096.55
2022-07-28T15:50:53.836Z,98092.36
2022-07-28T15:53:22.597Z,98097.41
2022-07-28T15:55:51.753Z,98089.17
2022-07-28T15:58:21.201Z,98091.71
2022-07-28T16:00:50.113Z,98093.22
2022-07-28T16:03:18.854Z,98093.20
2022-07-28T16:05:48.993Z,98092.86
2022-07-28T16:08:17.836Z,98093.05
2022-07-28T16:10:46.271Z,98093.06
2022-07-28T16:13:17.196Z,98093.33
2022-07-28T16:15:47.767Z,98092.53
2022-07-28T16:18:15.942Z,98088.63
2022-07-28T16:20:44.569Z,98090.86
2022-07-28T16:23:12.673Z,98090.33
2022-07-28T16:25:44.932Z,98088.58
2022-07-28T16:28:13.441Z,98091.87
2022-07-28T16:30:41.790Z,98091.76
2022-07-28T16:33:09.951Z,98096.88
2022-07-28T16:35:38.148Z,98097.11
2022-07-28T16:38:06.567Z,98096.26
2022-07-28T16:40:34.730Z,98096.12
2022-07-28T16:43:05.355Z,98096.55
2022-07-28T16:45:35.212Z,98096.20
2022-07-28T16:48:04.228Z,98097.19
2022-07-28T16:50:32.971Z,98099.12
2022-07-28T16:53:03.622Z,98100.45
2022-07-28T16:55:31.760Z,98101.76
2022-07-28T16:58:00.268Z,98100.27
2022-07-28T17:00:28.883Z,98101.59
2022-07-28T17:02:57.026Z,98102.28
2022-07-28T17:05:25.895Z,98100.61
2022-07-28T17:07:54.211Z,98100.63
2022-07-28T17:10:27.246Z,98099.79
2022-07-28T17:12:56.839Z,98101.04
2022-07-28T17:15:25.120Z,98100.06
2022-07-28T17:17:53.816Z,98106.36
2022-07-28T17:20:24.278Z,98107.94
2022-07-28T17:22:52.436Z,98108.66
2022-07-28T17:25:59.158Z,98108.46
2022-07-28T17:28:09.028Z,98108.63
2022-07-28T17:30:37.126Z,98108.11
2022-07-28T17:33:08.767Z,98111.66
2022-07-28T17:35:37.933Z,98109.75
2022-07-28T17:38:08.493Z,98108.79
2022-07-28T17:40:38.914Z,98109.01
2022-07-28T17:43:08.010Z,98110.72
2022-07-28T17:45:36.189Z,98110.90
2022-07-28T17:48:05.151Z,98111.02
2022-07-28T17:50:33.581Z,98115.52
2022-07-28T17:53:01.793Z,98120.34
2022-07-28T17:55:57.872Z,98120.26
2022-07-28T17:58:28.338Z,98120.12
2022-07-28T18:01:09.779Z,98122.50
2022-07-28T18:03:57.130Z,98121.15
2022-07-28T18:06:33.569Z,98125.61
2022-07-28T18:09:06.332Z,98125.61
2022-07-28T18:11:43.385Z,98125.12
2022-07-28T18:14:25.882Z,98123.55
2022-07-28T18:16:55.141Z,98125.86
2022-07-28T18:19:27.254Z,98127.31
2022-07-28T18:21:57.390Z,98127.56
2022-07-28T18:24:25.722Z,98125.95
2022-07-28T18:26:54.273Z,98129.16
2022-07-28T18:29:25.989Z,98133.02
2022-07-28T18:32:08.527Z,98136.60
2022-07-28T18:34:39.872Z,98139.30
2022-07-28T18:37:08.749Z,98143.33
2022-07-28T18:39:39.646Z,98148.14
2022-07-28T18:42:08.075Z,98151.52
2022-07-28T18:44:36.207Z,98157.10
2022-07-28T18:47:04.990Z,98152.96
2022-07-28T18:49:37.875Z,98153.36
2022-07-28T18:52:07.175Z,98157.02
2022-07-28T18:54:35.685Z,98156.48
2022-07-28T18:57:05.055Z,98159.04
2022-07-28T18:59:33.768Z,98156.02
2022-07-28T19:02:03.852Z,98159.48
2022-07-28T19:04:41.643Z,98156.27
2022-07-28T19:07:10.710Z,98160.70
2022-07-28T19:09:39.545Z,98163.50
2022-07-28T19:12:09.340Z,98167.55
2022-07-28T19:14:38.390Z,98170.58
2022-07-28T19:17:07.967Z,98168.02
2022-07-28T19:19:36.669Z,98174.16
2022-07-28T19:22:07.671Z,98170.33
2022-07-28T19:24:44.664Z,98171.52
2022-07-28T19:27:18.467Z,98174.38
2022-07-28T19:29:46.936Z,98176.46
2022-07-28T19:32:15.186Z,98175.39
2022-07-28T19:34:44.321Z,98175.78
2022-07-28T19:37:17.192Z,98178.73
2022-07-28T19:39:46.280Z,98182.31
2022-07-28T19:42:14.927Z,98183.05
2022-07-28T19:57:12.453Z,98186.77
2022-07-28T19:59:43.127Z,98192.91
2022-07-28T20:02:13.913Z,98196.48
2022-07-28T20:04:48.340Z,98198.70
2022-07-28T20:07:24.233Z,98189.02
2022-07-28T20:10:03.382Z,98198.41
2022-07-28T20:12:37.099Z,98196.89
2022-07-28T20:15:10.835Z,98199.02
2022-07-28T20:17:40.042Z,98204.05
2022-07-28T20:20:16.030Z,98205.57
2022-07-28T20:22:44.986Z,98208.73
2022-07-28T20:25:14.044Z,98209.35
2022-07-28T20:27:42.995Z,98209.48
2022-07-28T20:30:13.001Z,98207.40
2022-07-28T20:32:44.240Z,98208.92
2022-07-28T20:35:12.804Z,98206.21
2022-07-28T20:37:42.069Z,98211.28
2022-07-28T20:40:11.571Z,98214.41
2022-07-28T20:42:43.711Z,98219.02
2022-07-28T20:45:18.945Z,98218.84
2022-07-28T20:48:29.779Z,98225.14
2022-07-28T20:51:08.668Z,98218.83
2022-07-28T20:53:38.623Z,98218.08
2022-07-28T20:56:09.618Z,98218.13
2022-07-28T20:58:38.760Z,98222.04
2022-07-28T21:01:07.174Z,98222.16
2022-07-28T21:03:46.466Z,98225.05
2022-07-28T21:06:15.492Z,98224.35
2022-07-28T21:08:44.312Z,98225.66
2022-07-28T21:11:19.085Z,98224.38
2022-07-28T21:13:47.382Z,98223.19
2022-07-28T21:16:16.141Z,98219.77
2022-07-28T21:18:44.704Z,98220.91
2022-07-28T21:21:13.334Z,98219.36
2022-07-28T21:23:41.606Z,98221.89
2022-07-28T21:27:23.169Z,98223.50
2022-07-28T21:30:14.883Z,98227.63
2022-07-28T21:32:42.981Z,98229.77
2022-07-28T21:35:14.312Z,98227.66
2022-07-28T21:37:42.661Z,98229.64
2022-07-28T21:40:12.317Z,98232.85
2022-07-28T21:42:40.879Z,98236.17
2022-07-28T21:45:11.410Z,98235.98
2022-07-28T21:47:42.595Z,98236.49
2022-07-28T21:50:11.551Z,98238.59
2022-07-28T21:52:40.042Z,98238.16
2022-07-28T21:55:09.758Z,98237.01
2022-07-28T21:57:37.985Z,98237.46
2022-07-28T22:00:10.344Z,98237.11
2022-07-28T22:02:38.650Z,98230.11
2022-07-28T22:05:10.343Z,98230.56
2022-07-28T22:07:38.742Z,98231.81
2022-07-28T22:10:08.147Z,98225.15
2022-07-28T22:12:36.628Z,98231.23
2022-07-28T22:15:06.552Z,98228.71
2022-07-28T22:17:34.833Z,98229.45
2022-07-28T22:20:03.613Z,98227.48
2022-07-28T22:22:31.808Z,98230.78
2022-07-28T22:25:00.128Z,98229.80
2022-07-28T22:27:28.260Z,98230.40
2022-07-28T22:29:56.429Z,98230.33
2022-07-28T22:32:28.693Z,98231.42
2022-07-28T22:34:57.865Z,98231.48
2022-07-28T22:37:25.977Z,98231.81
2022-07-28T22:39:54.211Z,98234.04
2022-07-28T22:42:22.393Z,98232.11
2022-07-28T22:44:50.567Z,98227.61
2022-07-28T22:47:18.670Z,98230.96
2022-07-28T22:49:47.211Z,98226.66
2022-07-28T22:52:15.685Z,98230.41
2022-07-28T22:54:43.792Z,98229.06
2022-07-28T22:57:12.049Z,98228.27
2022-07-28T22:59:40.358Z,98237.46
2022-07-28T23:02:09.685Z,98236.02
2022-07-28T23:04:39.823Z,98242.30
2022-07-28T23:07:12.440Z,98239.92
2022-07-28T23:09:43.293Z,98243.73
2022-07-28T23:12:11.723Z,98239.86
2022-07-28T23:14:39.861Z,98242.02
2022-07-28T23:17:08.111Z,98242.30
2022-07-28T23:19:36.341Z,98244.79
2022-07-28T23:22:04.623Z,98245.86
2022-07-28T23:24:32.801Z,98243.87
2022-07-28T23:27:01.209Z,98243.14
2022-07-28T23:29:29.342Z,98244.19
2022-07-28T23:31:57.512Z,98244.42
2022-07-28T23:34:25.765Z,98244.94
2022-07-28T23:36:53.884Z,98248.27
2022-07-28T23:39:22.085Z,98248.63
2022-07-28T23:41:50.142Z,98249.03
2022-07-28T23:44:18.775Z,98245.63
2022-07-28T23:46:47.274Z,98244.67
2022-07-28T23:49:15.501Z,98248.35
2022-07-28T23:51:47.590Z,98247.56
2022-07-28T23:54:18.041Z,98249.80
2022-07-28T23:56:49.835Z,98252.16
2022-07-28T23:59:17.975Z,98251.41
